sensor_id;sensor_type;location;lat;lon;timestamp;pressure;altitude;pressure_sealevel;temperature;humidity
21879;BME280;27908;42.708;23.278;2023-06-10T00:02:06;64546.06;;;15.37;100.00
21879;BME280;27908;42.708;23.278;2023-06-10T00:04:33;64563.59;;;15.42;100.00
21879;BME280;27908;42.708;23.278;2023-06-10T00:06:58;64587.50;;;15.26;100.00
21879;BME280;27908;42.708;23.278;2023-06-10T00:09:23;64545.09;;;15.44;100.00
21879;BME280;27908;42.708;23.278;2023-06-10T00:11:49;64581.03;;;15.41;100.00
21879;BME280;27908;42.708;23.278;2023-06-10T00:14:14;64561.59;;;15.47;100.00
21879;BME280;27908;42.708;23.278;2023-06-10T00:16:40;64542.50;;;15.41;100.00
21879;BME280;27908;42.708;23.278;2023-06-10T00:19:06;64587.31;;;15.50;100.00
21879;BME280;27908;42.708;23.278;2023-06-10T00:21:32;64562.63;;;15.48;100.00
21879;BME280;27908;42.708;23.278;2023-06-10T00:24:06;64563.19;;;15.51;100.00
21879;BME280;27908;42.708;23.278;2023-06-10T00:26:32;64585.28;;;15.53;100.00
21879;BME280;27908;42.708;23.278;2023-06-10T00:29:01;64597.13;;;15.54;100.00
21879;BME280;27908;42.708;23.278;2023-06-10T00:31:27;64571.44;;;15.54;100.00
21879;BME280;27908;42.708;23.278;2023-06-10T00:33:52;64568.81;;;15.49;100.00
21879;BME280;27908;42.708;23.278;2023-06-10T00:36:18;64574.50;;;15.52;100.00
21879;BME280;27908;42.708;23.278;2023-06-10T00:38:43;64604.22;;;15.46;100.00
21879;BME280;27908;42.708;23.278;2023-06-10T00:41:09;64594.53;;;15.52;100.00
21879;BME280;27908;42.708;23.278;2023-06-10T00:43:34;64565.06;;;15.38;100.00
21879;BME280;27908;42.708;23.278;2023-06-10T00:46:00;64558.97;;;15.42;100.00
21879;BME280;27908;42.708;23.278;2023-06-10T00:48:27;64567.25;;;15.48;100.00
21879;BME280;27908;42.708;23.278;2023-06-10T00:50:52;64682.53;;;15.26;100.00
21879;BME280;27908;42.708;23.278;2023-06-10T00:53:19;64516.66;;;15.29;100.00
21879;BME280;27908;42.708;23.278;2023-06-10T00:55:45;64524.75;;;15.20;100.00
21879;BME280;27908;42.708;23.278;2023-06-10T00:58:12;64534.47;;;15.17;100.00
21879;BME280;27908;42.708;23.278;2023-06-10T01:00:38;64551.03;;;15.25;100.00
21879;BME280;27908;42.708;23.278;2023-06-10T01:03:03;64547.28;;;15.14;100.00
21879;BME280;27908;42.708;23.278;2023-06-10T01:05:34;64511.66;;;15.02;100.00
21879;BME280;27908;42.708;23.278;2023-06-10T01:11:00;64498.03;;;15.19;100.00
21879;BME280;27908;42.708;23.278;2023-06-10T01:13:27;64539.09;;;15.16;100.00
21879;BME280;27908;42.708;23.278;2023-06-10T01:15:55;64512.44;;;15.20;100.00
21879;BME280;27908;42.708;23.278;2023-06-10T01:18:21;64560.94;;;15.37;100.00
21879;BME280;27908;42.708;23.278;2023-06-10T01:20:47;64586.22;;;15.44;100.00
21879;BME280;27908;42.708;23.278;2023-06-10T01:23:14;64575.22;;;15.29;100.00
21879;BME280;27908;42.708;23.278;2023-06-10T01:25:45;64582.59;;;15.43;100.00
21879;BME280;27908;42.708;23.278;2023-06-10T01:28:19;64616.72;;;15.58;100.00
21879;BME280;27908;42.708;23.278;2023-06-10T01:30:55;64580.25;;;15.60;100.00
21879;BME280;27908;42.708;23.278;2023-06-10T01:33:28;64602.97;;;15.67;100.00
21879;BME280;27908;42.708;23.278;2023-06-10T01:35:57;64634.41;;;15.72;100.00
21879;BME280;27908;42.708;23.278;2023-06-10T01:38:26;64638.97;;;15.69;100.00
21879;BME280;27908;42.708;23.278;2023-06-10T01:40:55;64653.91;;;15.71;100.00
21879;BME280;27908;42.708;23.278;2023-06-10T01:43:21;64649.88;;;15.77;100.00
21879;BME280;27908;42.708;23.278;2023-06-10T01:45:46;64624.56;;;15.68;100.00
21879;BME280;27908;42.708;23.278;2023-06-10T01:48:12;64701.72;;;15.70;100.00
21879;BME280;27908;42.708;23.278;2023-06-10T01:50:37;64655.00;;;15.75;100.00
21879;BME280;27908;42.708;23.278;2023-06-10T01:53:04;64662.06;;;15.67;100.00
21879;BME280;27908;42.708;23.278;2023-06-10T01:55:30;64616.91;;;15.73;100.00
21879;BME280;27908;42.708;23.278;2023-06-10T01:57:55;64634.44;;;15.77;100.00
21879;BME280;27908;42.708;23.278;2023-06-10T02:00:21;64634.91;;;15.73;100.00
21879;BME280;27908;42.708;23.278;2023-06-10T02:02:46;64601.91;;;15.64;100.00
21879;BME280;27908;42.708;23.278;2023-06-10T02:05:12;64633.31;;;15.69;100.00
21879;BME280;27908;42.708;23.278;2023-06-10T02:07:37;64619.88;;;15.64;100.00
21879;BME280;27908;42.708;23.278;2023-06-10T02:10:04;64632.31;;;15.70;100.00
21879;BME280;27908;42.708;23.278;2023-06-10T02:12:29;64615.28;;;15.66;100.00
21879;BME280;27908;42.708;23.278;2023-06-10T02:14:55;64615.81;;;15.67;100.00
21879;BME280;27908;42.708;23.278;2023-06-10T02:17:20;64651.75;;;15.65;100.00
21879;BME280;27908;42.708;23.278;2023-06-10T02:19:45;64585.38;;;15.58;100.00
21879;BME280;27908;42.708;23.278;2023-06-10T02:22:20;64602.81;;;15.57;100.00
21879;BME280;27908;42.708;23.278;2023-06-10T02:24:46;64628.47;;;15.52;100.00
21879;BME280;27908;42.708;23.278;2023-06-10T02:27:11;64590.06;;;15.62;100.00
21879;BME280;27908;42.708;23.278;2023-06-10T02:29:36;64600.66;;;15.48;100.00
21879;BME280;27908;42.708;23.278;2023-06-10T02:32:03;64591.53;;;15.59;100.00
21879;BME280;27908;42.708;23.278;2023-06-10T02:34:28;64633.25;;;15.64;100.00
21879;BME280;27908;42.708;23.278;2023-06-10T02:36:54;64629.22;;;15.70;100.00
21879;BME280;27908;42.708;23.278;2023-06-10T02:39:19;64629.75;;;15.70;100.00
21879;BME280;27908;42.708;23.278;2023-06-10T02:41:45;64615.25;;;15.64;100.00
21879;BME280;27908;42.708;23.278;2023-06-10T02:44:11;64628.59;;;15.62;100.00
21879;BME280;27908;42.708;23.278;2023-06-10T02:46:36;64605.38;;;15.55;100.00
21879;BME280;27908;42.708;23.278;2023-06-10T02:49:02;64658.50;;;15.68;100.00
21879;BME280;27908;42.708;23.278;2023-06-10T02:51:27;64634.81;;;15.66;100.00
21879;BME280;27908;42.708;23.278;2023-06-10T02:53:52;64602.25;;;15.52;100.00
21879;BME280;27908;42.708;23.278;2023-06-10T02:56:18;64661.84;;;15.50;100.00
21879;BME280;27908;42.708;23.278;2023-06-10T02:58:44;64598.19;;;15.55;100.00
21879;BME280;27908;42.708;23.278;2023-06-10T03:01:09;64614.66;;;15.59;100.00
21879;BME280;27908;42.708;23.278;2023-06-10T03:03:35;64601.19;;;15.51;100.00
21879;BME280;27908;42.708;23.278;2023-06-10T03:06:02;64542.13;;;15.12;100.00
21879;BME280;27908;42.708;23.278;2023-06-10T03:08:29;64578.06;;;15.12;100.00
21879;BME280;27908;42.708;23.278;2023-06-10T03:10:55;64582.75;;;15.16;100.00
21879;BME280;27908;42.708;23.278;2023-06-10T03:13:20;64501.03;;;15.12;100.00
21879;BME280;27908;42.708;23.278;2023-06-10T03:15:46;64531.22;;;15.06;100.00
21879;BME280;27908;42.708;23.278;2023-06-10T03:18:12;64524.00;;;15.04;100.00
21879;BME280;27908;42.708;23.278;2023-06-10T03:20:37;64537.91;;;15.05;100.00
21879;BME280;27908;42.708;23.278;2023-06-10T03:23:05;64509.28;;;15.15;100.00
21879;BME280;27908;42.708;23.278;2023-06-10T03:25:32;64550.41;;;15.17;100.00
21879;BME280;27908;42.708;23.278;2023-06-10T03:27:57;64559.66;;;15.19;100.00
21879;BME280;27908;42.708;23.278;2023-06-10T03:30:22;64588.44;;;15.19;100.00
21879;BME280;27908;42.708;23.278;2023-06-10T03:32:48;64560.19;;;15.19;100.00
21879;BME280;27908;42.708;23.278;2023-06-10T03:35:14;64561.75;;;15.21;100.00
21879;BME280;27908;42.708;23.278;2023-06-10T03:37:40;64562.78;;;15.22;100.00
21879;BME280;27908;42.708;23.278;2023-06-10T03:40:07;64564.84;;;15.21;100.00
21879;BME280;27908;42.708;23.278;2023-06-10T03:42:33;64545.84;;;15.23;100.00
21879;BME280;27908;42.708;23.278;2023-06-10T03:44:59;64593.63;;;15.22;100.00
21879;BME280;27908;42.708;23.278;2023-06-10T03:47:25;64568.41;;;15.20;100.00
21879;BME280;27908;42.708;23.278;2023-06-10T03:49:50;64528.91;;;15.24;100.00
21879;BME280;27908;42.708;23.278;2023-06-10T03:52:15;64613.81;;;15.33;100.00
21879;BME280;27908;42.708;23.278;2023-06-10T03:54:41;64587.16;;;15.37;100.00
21879;BME280;27908;42.708;23.278;2023-06-10T03:57:06;64618.47;;;15.35;100.00
21879;BME280;27908;42.708;23.278;2023-06-10T03:59:32;64621.91;;;15.61;100.00
21879;BME280;27908;42.708;23.278;2023-06-10T04:01:57;64693.31;;;15.58;100.00
21879;BME280;27908;42.708;23.278;2023-06-10T04:04:23;64630.75;;;15.69;100.00
21879;BME280;27908;42.708;23.278;2023-06-10T04:06:48;64655.94;;;15.68;100.00
21879;BME280;27908;42.708;23.278;2023-06-10T04:09:14;64704.88;;;15.76;100.00
21879;BME280;27908;42.708;23.278;2023-06-10T04:11:41;64689.09;;;15.88;100.00
21879;BME280;27908;42.708;23.278;2023-06-10T04:14:07;64677.28;;;15.89;100.00
21879;BME280;27908;42.708;23.278;2023-06-10T04:16:33;64712.31;;;15.93;100.00
21879;BME280;27908;42.708;23.278;2023-06-10T04:18:59;64658.22;;;15.85;100.00
21879;BME280;27908;42.708;23.278;2023-06-10T04:21:26;64686.63;;;15.95;100.00
21879;BME280;27908;42.708;23.278;2023-06-10T04:23:53;64653.69;;;15.93;100.00
21879;BME280;27908;42.708;23.278;2023-06-10T04:26:19;64737.66;;;16.02;100.00
21879;BME280;27908;42.708;23.278;2023-06-10T04:28:44;64700.09;;;16.01;100.00
21879;BME280;27908;42.708;23.278;2023-06-10T04:31:09;64736.72;;;16.08;100.00
21879;BME280;27908;42.708;23.278;2023-06-10T04:33:35;64756.72;;;16.05;100.00
21879;BME280;27908;42.708;23.278;2023-06-10T04:36:01;64746.41;;;16.03;100.00
21879;BME280;27908;42.708;23.278;2023-06-10T04:38:27;64760.13;;;16.26;100.00
21879;BME280;27908;42.708;23.278;2023-06-10T04:40:52;64742.22;;;16.33;100.00
21879;BME280;27908;42.708;23.278;2023-06-10T04:43:18;64743.34;;;16.39;100.00
21879;BME280;27908;42.708;23.278;2023-06-10T04:45:43;64784.59;;;16.46;100.00
21879;BME280;27908;42.708;23.278;2023-06-10T04:48:10;64804.84;;;16.58;100.00
21879;BME280;27908;42.708;23.278;2023-06-10T04:50:36;64847.75;;;16.70;100.00
21879;BME280;27908;42.708;23.278;2023-06-10T04:53:01;64821.59;;;16.76;100.00
21879;BME280;27908;42.708;23.278;2023-06-10T04:55:27;64843.81;;;16.83;100.00
21879;BME280;27908;42.708;23.278;2023-06-10T04:57:52;64863.31;;;16.77;100.00
21879;BME280;27908;42.708;23.278;2023-06-10T05:00:18;64926.41;;;16.61;100.00
21879;BME280;27908;42.708;23.278;2023-06-10T05:02:43;64843.81;;;16.83;100.00
21879;BME280;27908;42.708;23.278;2023-06-10T05:05:10;64816.03;;;16.83;100.00
21879;BME280;27908;42.708;23.278;2023-06-10T05:07:36;64873.63;;;16.77;100.00
21879;BME280;27908;42.708;23.278;2023-06-10T05:10:01;64854.09;;;16.80;100.00
21879;BME280;27908;42.708;23.278;2023-06-10T05:12:28;64852.44;;;16.74;100.00
21879;BME280;27908;42.708;23.278;2023-06-10T05:14:53;64857.72;;;16.81;100.00
21879;BME280;27908;42.708;23.278;2023-06-10T05:17:19;64808.00;;;16.61;100.00
21879;BME280;27908;42.708;23.278;2023-06-10T05:19:44;64837.97;;;16.70;100.00
21879;BME280;27908;42.708;23.278;2023-06-10T05:22:10;64870.47;;;16.74;100.00
21879;BME280;27908;42.708;23.278;2023-06-10T05:24:35;64824.66;;;16.74;100.00
21879;BME280;27908;42.708;23.278;2023-06-10T05:27:01;64868.56;;;16.84;100.00
21879;BME280;27908;42.708;23.278;2023-06-10T05:29:26;64869.13;;;16.87;100.00
21879;BME280;27908;42.708;23.278;2023-06-10T05:31:52;64851.41;;;16.73;100.00
21879;BME280;27908;42.708;23.278;2023-06-10T05:34:17;64833.81;;;16.69;100.00
21879;BME280;27908;42.708;23.278;2023-06-10T05:36:43;64860.75;;;16.77;100.00
21879;BME280;27908;42.708;23.278;2023-06-10T05:39:09;64890.31;;;16.93;100.00
21879;BME280;27908;42.708;23.278;2023-06-10T05:41:35;64921.34;;;17.00;100.00
21879;BME280;27908;42.708;23.278;2023-06-10T05:44:00;64914.66;;;17.01;100.00
21879;BME280;27908;42.708;23.278;2023-06-10T05:46:26;64846.38;;;16.80;100.00
21879;BME280;27908;42.708;23.278;2023-06-10T05:48:51;64891.88;;;16.94;100.00
21879;BME280;27908;42.708;23.278;2023-06-10T05:51:17;64905.56;;;17.12;100.00
21879;BME280;27908;42.708;23.278;2023-06-10T05:53:42;64956.22;;;17.23;100.00
21879;BME280;27908;42.708;23.278;2023-06-10T05:56:07;64968.63;;;17.25;100.00
21879;BME280;27908;42.708;23.278;2023-06-10T05:58:33;64929.34;;;17.17;100.00
21879;BME280;27908;42.708;23.278;2023-06-10T06:00:59;64957.34;;;17.29;100.00
21879;BME280;27908;42.708;23.278;2023-06-10T06:03:25;65008.44;;;17.34;100.00
21879;BME280;27908;42.708;23.278;2023-06-10T06:05:50;65040.66;;;17.49;100.00
21879;BME280;27908;42.708;23.278;2023-06-10T06:08:15;65041.94;;;17.65;100.00
21879;BME280;27908;42.708;23.278;2023-06-10T06:10:44;65013.06;;;17.65;100.00
21879;BME280;27908;42.708;23.278;2023-06-10T06:13:10;65020.84;;;17.70;100.00
21879;BME280;27908;42.708;23.278;2023-06-10T06:15:35;65026.50;;;17.68;100.00
21879;BME280;27908;42.708;23.278;2023-06-10T06:18:01;65043.59;;;17.72;100.00
21879;BME280;27908;42.708;23.278;2023-06-10T06:20:26;65030.28;;;17.79;100.00
21879;BME280;27908;42.708;23.278;2023-06-10T06:22:52;65056.84;;;17.96;100.00
21879;BME280;27908;42.708;23.278;2023-06-10T06:25:17;65089.22;;;17.88;100.00
21879;BME280;27908;42.708;23.278;2023-06-10T06:27:43;65026.16;;;17.80;100.00
21879;BME280;27908;42.708;23.278;2023-06-10T06:30:08;65042.22;;;17.82;100.00
21879;BME280;27908;42.708;23.278;2023-06-10T06:32:34;65141.13;;;18.05;100.00
21879;BME280;27908;42.708;23.278;2023-06-10T06:34:59;65127.16;;;18.04;100.00
21879;BME280;27908;42.708;23.278;2023-06-10T06:37:25;65135.50;;;18.07;100.00
21879;BME280;27908;42.708;23.278;2023-06-10T06:39:51;65062.69;;;18.07;100.00
21879;BME280;27908;42.708;23.278;2023-06-10T06:42:17;65118.56;;;18.13;100.00
21879;BME280;27908;42.708;23.278;2023-06-10T06:44:43;65119.78;;;18.26;100.00
21879;BME280;27908;42.708;23.278;2023-06-10T06:47:08;65134.63;;;18.18;100.00
21879;BME280;27908;42.708;23.278;2023-06-10T06:49:34;65198.88;;;18.33;100.00
21879;BME280;27908;42.708;23.278;2023-06-10T06:51:59;65260.69;;;18.54;100.00
21879;BME280;27908;42.708;23.278;2023-06-10T06:54:25;65236.69;;;18.71;100.00
21879;BME280;27908;42.708;23.278;2023-06-10T06:56:50;65194.59;;;18.55;100.00
21879;BME280;27908;42.708;23.278;2023-06-10T06:59:16;65223.56;;;18.58;100.00
21879;BME280;27908;42.708;23.278;2023-06-10T07:01:44;65162.06;;;18.56;100.00
21879;BME280;27908;42.708;23.278;2023-06-10T07:04:09;65158.69;;;18.39;100.00
21879;BME280;27908;42.708;23.278;2023-06-10T07:06:35;65242.47;;;18.47;100.00
21879;BME280;27908;42.708;23.278;2023-06-10T07:09:01;65214.56;;;18.45;100.00
21879;BME280;27908;42.708;23.278;2023-06-10T07:11:27;65217.84;;;18.55;100.00
21879;BME280;27908;42.708;23.278;2023-06-10T07:13:52;65255.25;;;18.69;100.00
21879;BME280;27908;42.708;23.278;2023-06-10T07:16:18;65240.75;;;18.67;100.00
21879;BME280;27908;42.708;23.278;2023-06-10T07:18:45;65337.19;;;18.88;100.00
21879;BME280;27908;42.708;23.278;2023-06-10T07:21:11;65296.81;;;18.84;100.00
21879;BME280;27908;42.708;23.278;2023-06-10T07:23:36;65300.31;;;19.06;100.00
21879;BME280;27908;42.708;23.278;2023-06-10T07:26:02;65354.72;;;19.14;97.04
21879;BME280;27908;42.708;23.278;2023-06-10T07:28:27;65382.59;;;19.42;95.54
21879;BME280;27908;42.708;23.278;2023-06-10T07:30:53;65435.59;;;19.56;95.56
21879;BME280;27908;42.708;23.278;2023-06-10T07:33:18;65447.53;;;19.57;90.89
21879;BME280;27908;42.708;23.278;2023-06-10T07:35:44;65491.44;;;19.81;89.70
21879;BME280;27908;42.708;23.278;2023-06-10T07:38:09;65485.16;;;19.78;86.95
21879;BME280;27908;42.708;23.278;2023-06-10T07:40:35;65446.09;;;19.63;90.14
21879;BME280;27908;42.708;23.278;2023-06-10T07:43:01;65506.72;;;19.69;88.45
21879;BME280;27908;42.708;23.278;2023-06-10T07:45:26;65524.94;;;20.03;87.21
21879;BME280;27908;42.708;23.278;2023-06-10T07:47:52;65605.00;;;20.20;81.60
21879;BME280;27908;42.708;23.278;2023-06-10T07:50:17;65622.47;;;20.41;83.68
21879;BME280;27908;42.708;23.278;2023-06-10T07:52:43;65666.59;;;20.72;88.34
21879;BME280;27908;42.708;23.278;2023-06-10T07:55:08;65756.03;;;20.86;86.93
21879;BME280;27908;42.708;23.278;2023-06-10T07:57:34;65749.63;;;21.04;77.13
21879;BME280;27908;42.708;23.278;2023-06-10T08:00:02;65802.66;;;21.10;77.15
21879;BME280;27908;42.708;23.278;2023-06-10T08:02:29;65764.56;;;20.99;76.42
21879;BME280;27908;42.708;23.278;2023-06-10T08:04:55;65741.13;;;20.94;76.15
21879;BME280;27908;42.708;23.278;2023-06-10T08:07:21;65759.84;;;20.97;76.87
21879;BME280;27908;42.708;23.278;2023-06-10T08:09:47;65755.81;;;21.03;73.85
21879;BME280;27908;42.708;23.278;2023-06-10T08:12:13;65773.53;;;20.80;75.13
21879;BME280;27908;42.708;23.278;2023-06-10T08:14:39;65751.16;;;21.03;73.59
21879;BME280;27908;42.708;23.278;2023-06-10T08:17:04;65961.25;;;21.03;73.32
21879;BME280;27908;42.708;23.278;2023-06-10T08:19:31;65797.59;;;21.17;76.08
21879;BME280;27908;42.708;23.278;2023-06-10T08:21:57;65830.88;;;21.22;72.78
21879;BME280;27908;42.708;23.278;2023-06-10T08:24:22;65875.22;;;21.34;72.85
21879;BME280;27908;42.708;23.278;2023-06-10T08:26:47;65931.13;;;21.50;73.34
21879;BME280;27908;42.708;23.278;2023-06-10T08:29:13;65930.84;;;21.62;71.15
21879;BME280;27908;42.708;23.278;2023-06-10T08:31:43;65856.47;;;21.31;72.25
21879;BME280;27908;42.708;23.278;2023-06-10T08:34:08;65775.47;;;20.99;71.00
21879;BME280;27908;42.708;23.278;2023-06-10T08:36:34;65753.81;;;20.79;70.29
21879;BME280;27908;42.708;23.278;2023-06-10T08:38:59;65685.94;;;20.54;68.86
21879;BME280;27908;42.708;23.278;2023-06-10T08:41:25;65750.53;;;20.69;74.85
21879;BME280;27908;42.708;23.278;2023-06-10T08:44:24;65761.19;;;21.12;74.59
21879;BME280;27908;42.708;23.278;2023-06-10T08:46:53;65878.56;;;21.44;74.75
21879;BME280;27908;42.708;23.278;2023-06-10T08:49:21;65987.13;;;21.73;73.33
21879;BME280;27908;42.708;23.278;2023-06-10T08:51:58;65917.97;;;21.69;69.50
21879;BME280;27908;42.708;23.278;2023-06-10T08:54:26;65956.00;;;21.76;70.27
21879;BME280;27908;42.708;23.278;2023-06-10T08:56:54;65948.41;;;21.85;66.04
21879;BME280;27908;42.708;23.278;2023-06-10T08:59:20;65982.88;;;21.93;69.26
21879;BME280;27908;42.708;23.278;2023-06-10T09:01:47;66083.66;;;22.17;69.84
21879;BME280;27908;42.708;23.278;2023-06-10T09:04:13;66027.31;;;22.08;69.49
21879;BME280;27908;42.708;23.278;2023-06-10T09:06:40;66018.44;;;22.05;68.00
21879;BME280;27908;42.708;23.278;2023-06-10T09:09:07;65997.78;;;21.85;66.00
21879;BME280;27908;42.708;23.278;2023-06-10T09:11:33;65943.63;;;21.78;65.65
21879;BME280;27908;42.708;23.278;2023-06-10T09:13:58;66022.41;;;21.96;67.99
21879;BME280;27908;42.708;23.278;2023-06-10T09:16:24;66040.38;;;22.11;65.45
21879;BME280;27908;42.708;23.278;2023-06-10T09:18:50;65956.88;;;21.93;66.55
21879;BME280;27908;42.708;23.278;2023-06-10T09:21:24;65996.38;;;21.94;65.04
21879;BME280;27908;42.708;23.278;2023-06-10T09:23:51;66051.78;;;22.09;63.53
21879;BME280;27908;42.708;23.278;2023-06-10T09:26:17;66181.13;;;22.30;64.40
21879;BME280;27908;42.708;23.278;2023-06-10T09:28:44;66069.28;;;22.25;63.12
21879;BME280;27908;42.708;23.278;2023-06-10T09:31:09;66018.31;;;22.00;62.17
21879;BME280;27908;42.708;23.278;2023-06-10T09:33:38;66021.94;;;21.98;61.68
21879;BME280;27908;42.708;23.278;2023-06-10T09:36:04;66043.38;;;22.06;60.17
21879;BME280;27908;42.708;23.278;2023-06-10T09:38:31;66033.13;;;21.87;60.47
21879;BME280;27908;42.708;23.278;2023-06-10T09:40:58;66060.41;;;22.24;60.39
21879;BME280;27908;42.708;23.278;2023-06-10T09:43:38;66124.16;;;22.40;62.09
21879;BME280;27908;42.708;23.278;2023-06-10T09:46:04;66167.31;;;22.39;61.14
21879;BME280;27908;42.708;23.278;2023-06-10T09:48:30;66114.66;;;22.34;61.64
21879;BME280;27908;42.708;23.278;2023-06-10T09:50:59;66113.72;;;22.38;63.57
21879;BME280;27908;42.708;23.278;2023-06-10T09:53:25;66126.44;;;22.49;62.36
21879;BME280;27908;42.708;23.278;2023-06-10T09:55:52;66254.91;;;22.75;60.89
21879;BME280;27908;42.708;23.278;2023-06-10T09:58:17;66243.28;;;22.88;58.76
21879;BME280;27908;42.708;23.278;2023-06-10T10:00:43;66183.44;;;22.64;58.90
21879;BME280;27908;42.708;23.278;2023-06-10T10:03:08;66201.41;;;22.78;57.61
21879;BME280;27908;42.708;23.278;2023-06-10T10:05:33;66180.59;;;22.78;62.03
21879;BME280;27908;42.708;23.278;2023-06-10T10:07:59;66288.13;;;23.18;59.15
21879;BME280;27908;42.708;23.278;2023-06-10T10:10:25;66348.56;;;23.42;59.43
21879;BME280;27908;42.708;23.278;2023-06-10T10:12:54;66583.22;;;23.33;56.82
21879;BME280;27908;42.708;23.278;2023-06-10T10:15:21;66339.28;;;23.00;56.81
21879;BME280;27908;42.708;23.278;2023-06-10T10:20:28;66357.00;;;23.23;59.11
21879;BME280;27908;42.708;23.278;2023-06-10T10:22:57;66343.50;;;23.25;57.59
21879;BME280;27908;42.708;23.278;2023-06-10T10:25:24;66359.00;;;23.42;58.61
21879;BME280;27908;42.708;23.278;2023-06-10T10:28:02;66445.88;;;23.60;55.78
21879;BME280;27908;42.708;23.278;2023-06-10T10:30:35;66447.69;;;23.71;53.38
21879;BME280;27908;42.708;23.278;2023-06-10T10:33:27;66486.69;;;23.91;52.67
21879;BME280;27908;42.708;23.278;2023-06-10T10:35:57;66640.41;;;24.29;58.04
21879;BME280;27908;42.708;23.278;2023-06-10T10:38:23;66712.13;;;24.81;52.01
21879;BME280;27908;42.708;23.278;2023-06-10T10:40:50;66899.97;;;25.36;52.06
21879;BME280;27908;42.708;23.278;2023-06-10T10:43:16;66970.91;;;25.70;48.60
21879;BME280;27908;42.708;23.278;2023-06-10T10:45:42;67050.28;;;25.85;47.58
21879;BME280;27908;42.708;23.278;2023-06-10T10:48:09;66936.09;;;25.57;46.64
21879;BME280;27908;42.708;23.278;2023-06-10T10:50:37;66924.22;;;25.44;46.13
21879;BME280;27908;42.708;23.278;2023-06-10T10:53:04;66780.81;;;25.13;47.10
21879;BME280;27908;42.708;23.278;2023-06-10T10:55:30;66775.75;;;24.79;50.18
21879;BME280;27908;42.708;23.278;2023-06-10T10:58:06;66723.97;;;24.75;47.11
21879;BME280;27908;42.708;23.278;2023-06-10T11:00:33;66828.34;;;25.13;47.25
21879;BME280;27908;42.708;23.278;2023-06-10T11:03:08;66902.38;;;25.29;47.62
21879;BME280;27908;42.708;23.278;2023-06-10T11:05:41;67019.25;;;25.78;47.01
21879;BME280;27908;42.708;23.278;2023-06-10T11:08:10;66953.56;;;25.66;47.83
21879;BME280;27908;42.708;23.278;2023-06-10T11:10:37;66930.56;;;25.67;48.26
21879;BME280;27908;42.708;23.278;2023-06-10T11:13:22;67181.09;;;26.24;48.77
21879;BME280;27908;42.708;23.278;2023-06-10T11:15:49;67327.81;;;26.65;47.99
21879;BME280;27908;42.708;23.278;2023-06-10T11:18:22;67297.13;;;26.73;45.32
21879;BME280;27908;42.708;23.278;2023-06-10T11:31:21;67280.25;;;26.50;49.34
21879;BME280;27908;42.708;23.278;2023-06-10T11:33:48;67216.03;;;26.56;48.67
21879;BME280;27908;42.708;23.278;2023-06-10T11:36:16;67214.63;;;26.43;47.78
21879;BME280;27908;42.708;23.278;2023-06-10T11:38:42;67185.59;;;26.35;52.37
21879;BME280;27908;42.708;23.278;2023-06-10T11:41:08;67265.03;;;26.67;48.74
21879;BME280;27908;42.708;23.278;2023-06-10T11:43:34;67239.31;;;26.65;47.70
21879;BME280;27908;42.708;23.278;2023-06-10T11:45:59;67396.97;;;26.99;48.89
21879;BME280;27908;42.708;23.278;2023-06-10T11:48:25;67489.78;;;27.36;47.11
21879;BME280;27908;42.708;23.278;2023-06-10T11:50:53;67514.94;;;27.52;48.01
21879;BME280;27908;42.708;23.278;2023-06-10T11:53:19;67413.53;;;27.29;47.80
21879;BME280;27908;42.708;23.278;2023-06-10T11:55:46;67417.88;;;27.16;47.60
21879;BME280;27908;42.708;23.278;2023-06-10T11:58:20;67440.53;;;27.20;47.54
21879;BME280;27908;42.708;23.278;2023-06-10T12:00:55;67315.72;;;26.80;46.63
21879;BME280;27908;42.708;23.278;2023-06-10T12:03:23;67338.28;;;26.82;46.10
21879;BME280;27908;42.708;23.278;2023-06-10T12:05:59;67209.56;;;26.31;45.14
21879;BME280;27908;42.708;23.278;2023-06-10T12:08:25;67049.13;;;26.01;47.00
21879;BME280;27908;42.708;23.278;2023-06-10T12:10:51;66946.66;;;25.62;46.44
21879;BME280;27908;42.708;23.278;2023-06-10T12:13:17;66868.63;;;25.36;43.86
21879;BME280;27908;42.708;23.278;2023-06-10T12:15:46;66877.00;;;25.37;43.07
21879;BME280;27908;42.708;23.278;2023-06-10T12:18:21;66845.50;;;25.10;42.68
21879;BME280;27908;42.708;23.278;2023-06-10T12:20:47;66871.88;;;25.20;43.19
21879;BME280;27908;42.708;23.278;2023-06-10T12:23:14;66907.47;;;25.43;45.04
21879;BME280;27908;42.708;23.278;2023-06-10T12:25:52;66932.41;;;25.56;44.68
21879;BME280;27908;42.708;23.278;2023-06-10T12:28:26;66957.84;;;25.70;42.99
21879;BME280;27908;42.708;23.278;2023-06-10T12:30:52;66960.63;;;25.56;43.06
21879;BME280;27908;42.708;23.278;2023-06-10T12:33:30;66910.50;;;25.58;46.95
21879;BME280;27908;42.708;23.278;2023-06-10T12:35:56;67021.00;;;25.66;48.10
21879;BME280;27908;42.708;23.278;2023-06-10T12:38:24;67016.50;;;25.74;46.13
21879;BME280;27908;42.708;23.278;2023-06-10T12:40:50;66940.00;;;25.49;46.92
21879;BME280;27908;42.708;23.278;2023-06-10T12:43:25;66904.13;;;25.35;47.60
21879;BME280;27908;42.708;23.278;2023-06-10T12:45:51;66875.25;;;25.30;44.37
21879;BME280;27908;42.708;23.278;2023-06-10T12:48:24;66856.06;;;25.15;44.53
21879;BME280;27908;42.708;23.278;2023-06-10T12:50:54;66890.41;;;25.30;46.86
21879;BME280;27908;42.708;23.278;2023-06-10T12:53:20;66855.59;;;25.17;46.08
21879;BME280;27908;42.708;23.278;2023-06-10T12:55:47;66795.16;;;25.02;43.10
21879;BME280;27908;42.708;23.278;2023-06-10T12:58:13;66760.56;;;24.97;47.80
21879;BME280;27908;42.708;23.278;2023-06-10T13:00:39;66750.59;;;24.95;47.37